Time;durP1;ratioP1;P1;durP2;ratioP2;P2;SDS_P1;SDS_P2;PMS_P1;PMS_P2;Temp;Humidity;BMP_temperature;BMP_pressure;BME280_temperature;BME280_humidity;BME280_pressure;Samples;Min_cycle;Max_cycle;Signal;HPM_P1;HPM_P2
2020/12/27 00:02:04;;;;;;;11.37;8.00;;;-1.70;99.90;;;;;;5023883;28;21103;-90
2020/12/27 00:04:30;;;;;;;9.97;8.20;;;-1.80;99.90;;;;;;5036150;28;21176;-90
2020/12/27 00:06:57;;;;;;;9.27;7.33;;;-1.70;99.90;;;;;;5020537;28;20619;-91
2020/12/27 00:09:29;;;;;;;9.90;7.73;;;-1.80;99.90;;;;;;5033638;28;20750;-89
2020/12/27 00:11:57;;;;;;;8.67;7.47;;;-1.60;99.90;;;;;;5026977;28;20650;-90
2020/12/27 00:14:26;;;;;;;10.10;8.30;;;-1.80;99.90;;;;;;5027893;28;21018;-90
2020/12/27 00:16:52;;;;;;;9.77;8.77;;;-1.70;99.90;;;;;;5029887;28;20639;-88
2020/12/27 00:19:25;;;;;;;11.83;9.47;;;-1.80;99.90;;;;;;5032071;28;20701;-89
2020/12/27 00:21:54;;;;;;;8.43;7.40;;;-1.80;99.90;;;;;;5025950;28;20635;-91
2020/12/27 00:24:29;;;;;;;9.77;8.27;;;-1.90;99.90;;;;;;5032652;28;20636;-89
2020/12/27 00:26:55;;;;;;;9.57;7.83;;;-1.90;99.90;;;;;;5025736;28;20642;-91
2020/12/27 00:29:23;;;;;;;9.60;8.70;;;-1.90;99.90;;;;;;5036064;28;21180;-91
2020/12/27 00:31:50;;;;;;;9.97;8.90;;;-1.90;99.90;;;;;;5028152;28;21176;-91
2020/12/27 00:34:20;;;;;;;12.60;9.90;;;-1.90;99.90;;;;;;5028415;28;20695;-91
2020/12/27 00:36:47;;;;;;;10.93;9.70;;;-1.90;99.90;;;;;;5030568;28;20722;-92
2020/12/27 00:39:15;;;;;;;8.77;7.90;;;-1.80;99.90;;;;;;5025416;28;20607;-91
2020/12/27 00:41:41;;;;;;;10.10;8.70;;;-1.90;99.90;;;;;;5042303;28;20639;-90
2020/12/27 00:44:08;;;;;;;10.60;9.50;;;-1.90;99.90;;;;;;5034515;28;21420;-92
2020/12/27 00:46:35;;;;;;;10.20;9.20;;;-1.90;99.90;;;;;;5030403;28;20627;-90
2020/12/27 00:49:01;;;;;;;11.47;9.93;;;-1.90;99.90;;;;;;5036479;28;20618;-89
2020/12/27 00:51:28;;;;;;;10.07;9.03;;;-1.80;99.90;;;;;;5029818;28;20647;-92
2020/12/27 00:53:55;;;;;;;11.77;9.17;;;-1.80;99.90;;;;;;5025247;28;21273;-89
2020/12/27 00:56:21;;;;;;;9.90;8.80;;;-1.80;99.90;;;;;;5025061;28;21089;-90
2020/12/27 00:58:48;;;;;;;10.67;9.67;;;-1.80;99.90;;;;;;5028334;28;20657;-89
2020/12/27 01:01:15;;;;;;;16.33;9.73;;;-1.80;99.90;;;;;;5028401;28;20671;-91
2020/12/27 01:03:45;;;;;;;13.10;10.70;;;-1.70;99.90;;;;;;5038465;28;20733;-90
2020/12/27 01:06:12;;;;;;;11.40;10.03;;;-1.70;99.90;;;;;;5028549;28;20587;-91
2020/12/27 01:08:38;;;;;;;12.77;11.53;;;-1.70;99.90;;;;;;5033314;28;20722;-91
2020/12/27 01:11:09;;;;;;;11.67;10.47;;;-1.70;99.90;;;;;;5029977;28;20666;-91
2020/12/27 01:13:37;;;;;;;12.30;11.07;;;-1.80;99.90;;;;;;5032829;28;21238;-90
2020/12/27 01:16:04;;;;;;;13.63;11.73;;;-1.80;99.90;;;;;;5031002;28;20693;-90
2020/12/27 01:18:30;;;;;;;13.57;12.17;;;-1.70;99.90;;;;;;5026413;28;20623;-90
2020/12/27 01:20:57;;;;;;;12.80;11.60;;;-1.70;99.90;;;;;;5032051;28;20667;-89
2020/12/27 01:23:24;;;;;;;13.73;12.20;;;-1.80;99.90;;;;;;5025639;28;20634;-91
2020/12/27 01:25:50;;;;;;;13.27;11.87;;;-1.80;99.90;;;;;;5021544;28;20639;-90
2020/12/27 01:28:17;;;;;;;12.43;11.23;;;-1.80;99.90;;;;;;5026166;28;20677;-89
2020/12/27 01:30:44;;;;;;;12.73;11.10;;;-1.80;99.90;;;;;;5027472;28;21092;-91
2020/12/27 01:33:11;;;;;;;13.83;10.50;;;-1.90;99.90;;;;;;5035159;28;20654;-90
2020/12/27 01:35:37;;;;;;;13.93;11.57;;;-1.90;99.90;;;;;;5031217;28;20642;-93
2020/12/27 01:38:05;;;;;;;13.90;12.23;;;-1.80;99.90;;;;;;5034970;28;20641;-90
2020/12/27 01:40:31;;;;;;;13.73;11.13;;;-1.90;99.90;;;;;;5028237;28;20690;-90
2020/12/27 01:42:59;;;;;;;15.80;11.13;;;-2.00;99.90;;;;;;5028477;28;20739;-90
2020/12/27 01:45:29;;;;;;;12.43;10.93;;;-2.00;99.90;;;;;;5028354;28;20696;-91
2020/12/27 01:47:56;;;;;;;15.37;10.97;;;-2.10;99.90;;;;;;5028545;28;20649;-91
2020/12/27 01:50:22;;;;;;;12.33;10.50;;;-2.10;99.90;;;;;;5030763;28;20665;-91
2020/12/27 01:52:49;;;;;;;11.47;10.10;;;-2.20;99.90;;;;;;5026749;28;20663;-90
2020/12/27 01:55:18;;;;;;;12.30;10.97;;;-2.20;99.90;;;;;;5024290;28;20627;-90
2020/12/27 01:58:18;;;;;;;13.50;10.30;;;-2.20;99.90;;;;;;5029062;28;20635;-90
2020/12/27 02:00:45;;;;;;;13.50;11.13;;;-2.20;99.90;;;;;;5025927;28;20670;-89
2020/12/27 02:03:12;;;;;;;11.50;10.30;;;-2.20;99.90;;;;;;5028836;28;20627;-90
2020/12/27 02:05:40;;;;;;;12.90;10.70;;;-2.20;99.90;;;;;;5027797;28;20615;-91
2020/12/27 02:08:13;;;;;;;12.20;11.00;;;-2.10;99.90;;;;;;5026924;28;21256;-91
2020/12/27 02:10:42;;;;;;;12.07;10.80;;;-2.10;99.90;;;;;;5028282;28;21257;-92
2020/12/27 02:13:09;;;;;;;11.97;10.43;;;-2.10;99.90;;;;;;5033450;28;20671;-91
2020/12/27 02:15:35;;;;;;;11.60;10.40;;;-2.10;99.90;;;;;;5028783;28;20634;-92
2020/12/27 02:18:02;;;;;;;13.50;10.70;;;-2.00;99.90;;;;;;5043226;28;20676;-91
2020/12/27 02:20:29;;;;;;;11.93;10.73;;;-2.00;99.90;;;;;;5033876;28;20673;-91
2020/12/27 02:22:57;;;;;;;9.80;8.90;;;-2.10;99.90;;;;;;5031001;28;20627;-91
2020/12/27 02:25:24;;;;;;;12.43;10.50;;;-2.10;99.90;;;;;;5029222;28;21039;-92
2020/12/27 02:27:50;;;;;;;11.80;10.60;;;-1.90;99.90;;;;;;5029830;28;20677;-91
2020/12/27 02:30:17;;;;;;;11.40;10.20;;;-2.10;99.90;;;;;;5029484;28;20663;-91
2020/12/27 02:32:44;;;;;;;11.00;9.90;;;-2.10;99.90;;;;;;5031317;28;20995;-92
2020/12/27 02:35:11;;;;;;;13.13;10.43;;;-2.00;99.90;;;;;;5024154;28;20985;-90
2020/12/27 02:37:38;;;;;;;13.93;11.20;;;-1.90;99.90;;;;;;5025786;28;21222;-89
2020/12/27 02:40:04;;;;;;;11.73;9.70;;;-1.90;99.90;;;;;;5026817;28;20650;-91
2020/12/27 02:42:32;;;;;;;12.30;9.83;;;-1.90;99.90;;;;;;5034548;28;20633;-88
2020/12/27 02:45:10;;;;;;;9.53;8.63;;;-1.90;99.90;;;;;;5033114;28;20689;-90
2020/12/27 02:47:39;;;;;;;10.43;8.27;;;-1.90;99.90;;;;;;5036987;28;20642;-91
2020/12/27 02:50:10;;;;;;;9.80;8.37;;;-1.90;99.90;;;;;;5031887;28;20708;-91
2020/12/27 02:52:36;;;;;;;14.07;9.90;;;-1.90;99.90;;;;;;5032201;28;20643;-91
2020/12/27 02:55:03;;;;;;;11.93;10.70;;;-2.00;99.90;;;;;;5034694;28;21230;-90
2020/12/27 02:57:29;;;;;;;11.57;9.57;;;-2.10;99.90;;;;;;5033090;28;20627;-90
2020/12/27 02:59:56;;;;;;;11.40;8.83;;;-2.10;99.90;;;;;;5032061;28;21217;-89
2020/12/27 03:02:24;;;;;;;11.60;8.90;;;-2.10;99.90;;;;;;5026376;28;20639;-89
2020/12/27 03:04:51;;;;;;;15.67;8.90;;;-2.00;99.90;;;;;;5032864;28;20586;-90
2020/12/27 03:07:17;;;;;;;14.30;9.80;;;-2.00;99.90;;;;;;5033834;28;20638;-89
2020/12/27 03:09:43;;;;;;;12.97;10.73;;;-2.00;99.90;;;;;;5032271;28;20631;-89
2020/12/27 03:12:10;;;;;;;11.33;10.03;;;-2.10;99.90;;;;;;5033228;28;20627;-90
2020/12/27 03:14:36;;;;;;;10.97;9.83;;;-2.00;99.90;;;;;;5026486;28;21068;-90
2020/12/27 03:17:03;;;;;;;15.17;10.17;;;-1.90;99.90;;;;;;5032789;28;20607;-90
2020/12/27 03:19:29;;;;;;;12.23;9.43;;;-2.00;99.90;;;;;;5033844;28;20667;-91
2020/12/27 03:21:56;;;;;;;10.27;9.27;;;-2.00;99.90;;;;;;5032350;28;20638;-90
2020/12/27 03:24:22;;;;;;;11.90;9.43;;;-1.90;99.90;;;;;;5030493;28;20634;-89
2020/12/27 03:26:48;;;;;;;10.60;9.50;;;-1.90;99.90;;;;;;5030707;28;20631;-89
2020/12/27 03:29:15;;;;;;;11.43;9.20;;;-2.00;99.90;;;;;;5025703;28;20627;-89
2020/12/27 03:31:42;;;;;;;16.63;11.23;;;-2.00;99.90;;;;;;5028168;28;20686;-90
2020/12/27 03:34:09;;;;;;;10.90;9.70;;;-1.90;99.90;;;;;;5030459;28;20752;-90
2020/12/27 03:36:36;;;;;;;11.50;8.83;;;-1.90;99.90;;;;;;5032332;28;20635;-90
2020/12/27 03:39:02;;;;;;;10.80;9.70;;;-1.90;99.90;;;;;;5031333;28;20632;-90
2020/12/27 03:41:28;;;;;;;12.50;9.00;;;-1.90;99.90;;;;;;5028120;28;20681;-90
2020/12/27 03:43:55;;;;;;;9.53;8.63;;;-1.90;99.90;;;;;;5029723;28;20676;-89
2020/12/27 03:46:21;;;;;;;9.33;8.30;;;-1.80;99.90;;;;;;5030573;28;20606;-89
2020/12/27 03:48:47;;;;;;;9.33;7.87;;;-1.80;99.90;;;;;;5032592;28;21419;-90
2020/12/27 03:51:15;;;;;;;9.37;8.40;;;-1.80;99.90;;;;;;5036260;28;20696;-90
2020/12/27 03:53:41;;;;;;;8.90;8.03;;;-1.80;99.90;;;;;;5030161;28;20663;-92
2020/12/27 03:56:07;;;;;;;10.53;8.17;;;-2.00;99.90;;;;;;5029968;28;20662;-90
2020/12/27 03:58:34;;;;;;;11.80;8.47;;;-2.10;99.90;;;;;;5027449;28;20634;-91
2020/12/27 04:01:00;;;;;;;10.43;9.27;;;-2.00;99.90;;;;;;5029376;28;21202;-90
2020/12/27 04:03:26;;;;;;;10.13;8.97;;;-2.10;99.90;;;;;;5027899;28;20638;-90
2020/12/27 04:05:52;;;;;;;9.43;7.93;;;-2.10;99.90;;;;;;5029399;28;20627;-90
2020/12/27 04:08:20;;;;;;;9.33;8.27;;;-2.10;99.90;;;;;;5027502;28;20636;-90
2020/12/27 04:10:47;;;;;;;11.07;8.20;;;-2.20;99.90;;;;;;5034221;28;20658;-93
2020/12/27 04:13:14;;;;;;;8.77;7.83;;;-2.30;99.90;;;;;;5031956;28;20666;-90
2020/12/27 04:15:42;;;;;;;8.80;7.90;;;-2.30;99.90;;;;;;5038576;28;20635;-91
2020/12/27 04:18:08;;;;;;;8.43;7.53;;;-2.50;99.90;;;;;;5033319;28;20632;-91
2020/12/27 04:20:35;;;;;;;10.20;8.10;;;-2.40;99.90;;;;;;5034221;28;20663;-89
2020/12/27 04:23:01;;;;;;;12.23;7.60;;;-2.30;99.90;;;;;;5033206;28;21439;-91
2020/12/27 04:25:30;;;;;;;8.50;7.43;;;-2.30;99.90;;;;;;5032471;28;20640;-89
2020/12/27 04:27:56;;;;;;;10.10;8.47;;;-2.20;99.90;;;;;;5025970;28;20632;-90
2020/12/27 04:30:22;;;;;;;10.80;7.83;;;-2.10;99.90;;;;;;5026363;28;20675;-90
2020/12/27 04:32:50;;;;;;;9.77;8.77;;;-2.10;99.90;;;;;;5027564;28;20627;-88
2020/12/27 04:35:16;;;;;;;12.50;8.13;;;-2.20;99.90;;;;;;5025603;28;20643;-87
2020/12/27 04:37:42;;;;;;;8.60;7.10;;;-2.20;99.90;;;;;;5029025;28;20646;-89
2020/12/27 04:40:10;;;;;;;7.70;6.97;;;-2.20;99.90;;;;;;5027832;28;20647;-87
2020/12/27 04:42:37;;;;;;;8.47;6.97;;;-2.30;99.90;;;;;;5020271;28;20639;-87
2020/12/27 04:45:05;;;;;;;7.27;6.67;;;-2.30;99.90;;;;;;5028403;28;20628;-88
2020/12/27 04:47:35;;;;;;;7.33;6.63;;;-2.20;99.90;;;;;;5026121;28;21070;-88
2020/12/27 04:50:03;;;;;;;7.10;6.00;;;-2.10;99.90;;;;;;5029846;28;20650;-87
2020/12/27 04:52:33;;;;;;;8.53;6.70;;;-1.90;99.90;;;;;;5027738;28;20618;-86
2020/12/27 04:55:00;;;;;;;7.97;6.27;;;-1.80;99.90;;;;;;5025449;28;20678;-86
2020/12/27 04:57:27;;;;;;;7.50;6.73;;;-1.90;99.90;;;;;;5028686;28;20636;-88
2020/12/27 05:00:04;;;;;;;7.90;6.40;;;-1.90;99.90;;;;;;5029892;28;20665;-87
2020/12/27 05:02:30;;;;;;;8.70;6.03;;;-2.00;99.90;;;;;;5026100;28;21188;-88
2020/12/27 05:04:56;;;;;;;7.07;6.37;;;-1.90;99.90;;;;;;5032186;28;21176;-87
2020/12/27 05:07:23;;;;;;;9.40;6.70;;;-2.00;99.90;;;;;;5028915;28;20623;-88
2020/12/27 05:09:51;;;;;;;11.40;7.27;;;-2.00;99.90;;;;;;5026813;28;20634;-88
2020/12/27 05:12:20;;;;;;;7.97;6.63;;;-2.00;99.90;;;;;;5034874;28;20929;-88
2020/12/27 05:14:48;;;;;;;9.00;8.10;;;-2.00;99.90;;;;;;5027086;28;20665;-87
2020/12/27 05:17:16;;;;;;;8.93;7.10;;;-1.90;99.90;;;;;;5030004;28;20707;-89
2020/12/27 05:19:43;;;;;;;7.60;6.90;;;-1.90;99.90;;;;;;5026434;28;21302;-89
2020/12/27 05:22:11;;;;;;;10.73;7.20;;;-1.90;99.90;;;;;;5024679;28;21020;-89
2020/12/27 05:24:38;;;;;;;7.27;6.57;;;-1.80;99.90;;;;;;5030554;28;20642;-89
2020/12/27 05:27:08;;;;;;;8.10;7.30;;;-1.80;99.90;;;;;;5031175;28;21260;-86
2020/12/27 05:29:37;;;;;;;9.10;8.20;;;-1.80;99.90;;;;;;5028574;28;20667;-88
2020/12/27 07:50:49;;;;;;;17.63;13.37;;;-1.20;99.90;;;;;;5099621;27;20783;-90
2020/12/27 07:53:20;;;;;;;16.13;12.70;;;-1.30;99.90;;;;;;5081721;28;20647;-90
2020/12/27 07:55:48;;;;;;;13.67;11.10;;;-1.20;99.90;;;;;;5083803;28;20722;-91
2020/12/27 07:58:14;;;;;;;13.63;10.00;;;-1.20;99.90;;;;;;5083849;28;20680;-90
2020/12/27 08:00:43;;;;;;;10.13;9.13;;;-1.30;99.90;;;;;;5081458;28;20858;-90
2020/12/27 08:03:10;;;;;;;10.67;9.57;;;-1.30;99.90;;;;;;5075730;28;20637;-91
2020/12/27 08:05:38;;;;;;;12.00;10.47;;;-1.20;99.90;;;;;;5082253;28;21418;-91
2020/12/27 08:08:06;;;;;;;14.37;11.30;;;-1.00;99.90;;;;;;5079129;28;22072;-90
2020/12/27 08:10:33;;;;;;;11.80;10.60;;;-1.10;99.90;;;;;;5079974;28;20661;-90
2020/12/27 08:13:01;;;;;;;10.77;9.67;;;-1.00;99.90;;;;;;5078139;28;20952;-90
2020/12/27 08:15:29;;;;;;;10.93;9.90;;;-0.90;99.90;;;;;;5074894;28;21230;-92
2020/12/27 08:17:58;;;;;;;10.63;9.50;;;-0.90;99.90;;;;;;5072908;28;20632;-90
2020/12/27 08:20:32;;;;;;;9.93;8.90;;;-0.90;99.90;;;;;;5076352;28;20642;-89
2020/12/27 08:23:00;;;;;;;11.97;10.40;;;-0.80;99.90;;;;;;5079350;28;20625;-91
2020/12/27 08:25:28;;;;;;;13.30;10.13;;;-0.90;99.90;;;;;;5077148;28;21279;-91
2020/12/27 08:27:56;;;;;;;11.50;10.40;;;-0.80;99.90;;;;;;5077319;28;20702;-91
2020/12/27 08:30:24;;;;;;;12.83;11.30;;;-0.80;99.90;;;;;;5083389;28;21013;-91
2020/12/27 08:33:10;;;;;;;11.33;10.13;;;-0.80;99.90;;;;;;5076485;28;21199;-92
2020/12/27 08:35:40;;;;;;;11.63;10.53;;;-0.70;99.90;;;;;;5077938;28;20666;-91
2020/12/27 08:38:26;;;;;;;11.53;9.33;;;-0.60;99.90;;;;;;5080796;28;20663;-89
2020/12/27 08:41:01;;;;;;;9.83;8.93;;;-0.60;99.90;;;;;;5088845;28;20637;-89
2020/12/27 08:43:51;;;;;;;11.60;10.27;;;-0.60;99.90;;;;;;5076164;28;20631;-89
2020/12/27 08:46:21;;;;;;;14.40;10.90;;;-0.50;99.90;;;;;;5077423;28;20656;-89
2020/12/27 08:48:52;;;;;;;13.13;11.83;;;-0.40;99.90;;;;;;5078981;28;20656;-89
2020/12/27 08:51:23;;;;;;;14.13;12.63;;;-0.30;99.90;;;;;;5073770;28;20629;-90
2020/12/27 08:53:50;;;;;;;17.17;12.00;;;-0.20;99.90;;;;;;5080412;28;20645;-89
2020/12/27 08:56:19;;;;;;;15.57;12.93;;;-0.10;99.90;;;;;;5074961;28;21235;-89
2020/12/27 08:58:54;;;;;;;13.73;12.40;;;0.10;99.90;;;;;;5080078;28;20958;-90
2020/12/27 09:01:22;;;;;;;13.93;12.27;;;-0.10;99.90;;;;;;5078084;28;20989;-90
2020/12/27 09:03:49;;;;;;;12.07;10.43;;;-0.20;99.90;;;;;;5082786;28;20611;-89
2020/12/27 09:06:16;;;;;;;11.73;10.70;;;-0.20;99.90;;;;;;5071431;28;20653;-90
2020/12/27 09:08:43;;;;;;;10.63;9.63;;;-0.10;99.90;;;;;;5059603;28;21222;-89
2020/12/27 09:11:10;;;;;;;10.00;9.10;;;-0.20;99.90;;;;;;5066689;28;20617;-89
2020/12/27 09:13:38;;;;;;;10.50;9.50;;;-0.10;99.90;;;;;;5066075;28;20622;-89
2020/12/27 09:16:05;;;;;;;9.97;9.03;;;-0.10;99.90;;;;;;5060871;28;20702;-90
2020/12/27 09:18:34;;;;;;;10.07;9.17;;;-0.10;99.90;;;;;;5067230;28;20652;-89
2020/12/27 09:21:02;;;;;;;10.17;9.07;;;0.10;99.90;;;;;;5066927;28;20659;-90
2020/12/27 09:23:28;;;;;;;12.87;11.53;;;0.10;99.90;;;;;;5062961;28;20586;-90
2020/12/27 09:26:06;;;;;;;13.73;11.83;;;0.10;99.90;;;;;;5062566;28;20661;-89
2020/12/27 09:28:35;;;;;;;12.30;11.10;;;0.30;99.90;;;;;;5063193;28;20582;-89
2020/12/27 09:31:04;;;;;;;12.07;10.93;;;0.40;99.90;;;;;;5062380;28;20649;-88
2020/12/27 09:33:35;;;;;;;9.67;7.40;;;0.50;99.90;;;;;;5063350;28;21190;-88
2020/12/27 09:36:05;;;;;;;8.40;7.67;;;0.40;99.90;;;;;;5060794;28;20748;-88
2020/12/27 09:38:35;;;;;;;7.47;6.27;;;0.30;99.90;;;;;;5057068;28;21020;-88
2020/12/27 09:41:07;;;;;;;8.50;7.53;;;0.40;99.90;;;;;;5066956;28;20671;-88
2020/12/27 09:43:46;;;;;;;8.57;7.77;;;0.60;99.90;;;;;;5059518;28;20614;-89
2020/12/27 09:46:40;;;;;;;8.30;7.50;;;0.70;99.90;;;;;;5060432;28;20653;-88
2020/12/27 09:49:17;;;;;;;8.93;8.10;;;0.90;99.90;;;;;;5060686;28;20692;-89
2020/12/27 09:51:43;;;;;;;8.73;7.60;;;0.90;99.90;;;;;;5054777;28;20707;-90
2020/12/27 09:54:10;;;;;;;8.67;7.87;;;1.00;99.90;;;;;;5053462;28;20649;-92
2020/12/27 09:56:41;;;;;;;11.00;8.03;;;1.20;99.90;;;;;;5058755;28;20652;-89
2020/12/27 09:59:08;;;;;;;9.30;7.90;;;1.10;99.90;;;;;;5062038;28;20621;-90
2020/12/27 10:01:35;;;;;;;9.40;8.50;;;1.20;99.90;;;;;;5064632;28;20644;-91
2020/12/27 10:04:01;;;;;;;8.57;7.80;;;1.20;99.90;;;;;;5071390;28;21272;-92
2020/12/27 10:06:28;;;;;;;9.47;8.57;;;1.20;99.90;;;;;;5061445;28;20622;-91
2020/12/27 10:08:54;;;;;;;9.40;7.80;;;1.20;99.90;;;;;;5064507;28;21128;-93
2020/12/27 10:11:21;;;;;;;8.40;7.70;;;1.20;99.90;;;;;;5062267;28;20637;-92
2020/12/27 10:13:49;;;;;;;8.90;8.10;;;1.20;99.90;;;;;;5065321;28;20646;-93
2020/12/27 10:16:16;;;;;;;9.73;8.30;;;1.20;99.90;;;;;;5064046;28;20626;-92
2020/12/27 10:18:43;;;;;;;9.53;8.67;;;1.40;99.90;;;;;;5069558;28;20630;-93
2020/12/27 10:21:18;;;;;;;8.43;7.67;;;1.40;99.90;;;;;;5069568;28;20652;-91
2020/12/27 10:23:46;;;;;;;8.70;7.90;;;1.40;99.90;;;;;;5069869;28;20620;-91
2020/12/27 10:26:13;;;;;;;8.97;8.17;;;1.40;99.90;;;;;;5064262;28;20681;-90
2020/12/27 10:28:41;;;;;;;9.23;8.33;;;1.30;99.90;;;;;;5071347;28;20636;-91
2020/12/27 10:31:09;;;;;;;8.97;8.23;;;1.30;99.90;;;;;;5066480;28;20638;-91
2020/12/27 10:33:39;;;;;;;9.10;8.17;;;1.40;99.90;;;;;;5066071;28;20630;-91
2020/12/27 10:36:06;;;;;;;9.50;8.10;;;1.30;99.90;;;;;;5068529;28;20662;-91
2020/12/27 10:38:33;;;;;;;8.80;8.00;;;1.40;99.90;;;;;;5064371;28;20638;-92
2020/12/27 10:41:02;;;;;;;9.70;8.00;;;1.60;99.90;;;;;;5062439;28;20664;-91
2020/12/27 10:43:29;;;;;;;9.60;8.80;;;1.50;99.90;;;;;;5068870;28;20621;-91
2020/12/27 10:46:01;;;;;;;8.07;7.33;;;1.60;99.90;;;;;;5068028;28;20649;-92
2020/12/27 10:48:28;;;;;;;8.90;8.17;;;1.60;99.90;;;;;;5059267;28;20699;-90
2020/12/27 10:50:54;;;;;;;9.83;8.20;;;1.50;99.90;;;;;;5064811;28;20668;-90
2020/12/27 10:53:22;;;;;;;9.83;9.03;;;1.60;99.90;;;;;;5064787;28;21165;-91
2020/12/27 10:55:49;;;;;;;9.50;8.70;;;1.60;99.90;;;;;;5058977;28;21264;-92
2020/12/27 10:58:18;;;;;;;8.70;7.90;;;1.60;99.90;;;;;;5062239;28;20613;-93
2020/12/27 11:00:46;;;;;;;10.50;8.17;;;1.50;99.90;;;;;;5059508;28;20622;-91
2020/12/27 11:03:15;;;;;;;9.70;8.80;;;1.70;99.90;;;;;;5064691;28;20676;-91
2020/12/27 11:05:48;;;;;;;9.47;8.57;;;1.60;99.90;;;;;;5067392;28;21947;-90
2020/12/27 11:08:15;;;;;;;10.07;9.13;;;1.60;99.90;;;;;;5067078;28;20626;-91
2020/12/27 11:10:44;;;;;;;8.57;7.87;;;1.60;99.90;;;;;;5066952;28;20697;-90
2020/12/27 11:13:10;;;;;;;8.97;8.10;;;1.60;99.90;;;;;;5068441;28;20691;-92
2020/12/27 11:15:40;;;;;;;9.20;8.33;;;1.70;99.90;;;;;;5071694;28;20669;-89
2020/12/27 11:18:06;;;;;;;9.03;8.20;;;1.70;99.90;;;;;;5064198;28;20637;-92
2020/12/27 11:20:34;;;;;;;8.47;7.50;;;1.80;99.90;;;;;;5068029;28;20653;-89
2020/12/27 11:23:01;;;;;;;9.60;8.70;;;1.80;99.90;;;;;;5064573;28;20623;-89
2020/12/27 11:25:27;;;;;;;10.70;9.70;;;1.90;99.90;;;;;;5077130;28;20644;-90
2020/12/27 11:27:57;;;;;;;9.00;8.07;;;1.90;99.90;;;;;;5080878;28;20617;-89
2020/12/27 11:30:26;;;;;;;9.93;9.10;;;1.90;99.90;;;;;;5068359;28;20760;-90
2020/12/27 11:32:56;;;;;;;9.10;8.30;;;2.00;99.90;;;;;;5063145;28;20644;-90
2020/12/27 11:35:23;;;;;;;8.57;7.77;;;2.10;99.90;;;;;;5070799;28;20637;-91
2020/12/27 11:37:51;;;;;;;7.80;7.00;;;2.00;99.90;;;;;;5080504;28;20638;-88
2020/12/27 11:40:17;;;;;;;7.07;6.37;;;2.00;99.90;;;;;;5075121;28;21307;-88
2020/12/27 11:42:44;;;;;;;8.70;7.93;;;1.90;99.90;;;;;;5083046;28;20651;-90
2020/12/27 11:45:11;;;;;;;7.83;7.07;;;1.90;99.90;;;;;;5076209;28;20645;-90
2020/12/27 11:47:39;;;;;;;7.17;6.50;;;2.00;99.90;;;;;;5088294;28;20638;-90
2020/12/27 11:50:06;;;;;;;7.50;6.80;;;1.90;99.90;;;;;;5071339;28;20662;-88
2020/12/27 11:52:35;;;;;;;7.30;6.60;;;2.10;99.90;;;;;;5070336;28;20639;-88
2020/12/27 11:55:03;;;;;;;6.87;6.27;;;2.20;99.90;;;;;;5072055;28;21261;-85
2020/12/27 11:57:29;;;;;;;6.63;6.03;;;2.20;99.90;;;;;;5070540;28;20676;-88
2020/12/27 11:59:55;;;;;;;6.00;5.50;;;2.20;99.90;;;;;;5073044;28;20676;-89
2020/12/27 12:02:24;;;;;;;7.00;6.37;;;2.40;99.90;;;;;;5071011;28;20688;-87
2020/12/27 12:04:53;;;;;;;8.00;7.30;;;2.30;99.90;;;;;;5068966;28;21058;-88
2020/12/27 12:07:20;;;;;;;5.73;5.23;;;2.30;99.90;;;;;;5073520;28;20649;-87
2020/12/27 12:09:46;;;;;;;6.53;5.90;;;2.40;99.90;;;;;;5068388;28;20753;-87
2020/12/27 12:12:13;;;;;;;7.30;6.47;;;2.40;99.90;;;;;;5075094;28;20637;-88
2020/12/27 12:14:40;;;;;;;7.93;6.83;;;2.50;99.90;;;;;;5070031;28;21237;-87
2020/12/27 12:17:08;;;;;;;6.33;5.73;;;2.50;99.90;;;;;;5068311;28;20641;-88
2020/12/27 12:19:37;;;;;;;7.23;6.23;;;2.60;99.90;;;;;;5064660;28;20679;-87
2020/12/27 12:22:14;;;;;;;6.80;6.20;;;2.60;99.90;;;;;;5067597;28;20687;-87
2020/12/27 12:24:41;;;;;;;6.30;5.70;;;2.50;99.90;;;;;;5073996;28;20728;-87
2020/12/27 12:27:07;;;;;;;8.67;6.67;;;2.60;99.90;;;;;;5084341;28;20666;-88
2020/12/27 12:29:34;;;;;;;6.07;5.47;;;2.50;99.90;;;;;;5075103;28;20686;-87
2020/12/27 12:32:00;;;;;;;6.27;5.67;;;2.40;99.90;;;;;;5062689;28;20690;-88
2020/12/27 12:34:28;;;;;;;6.90;6.20;;;2.50;99.90;;;;;;5075168;28;20638;-88
2020/12/27 12:36:56;;;;;;;5.80;5.30;;;2.60;99.90;;;;;;5073768;28;20651;-87
2020/12/27 12:39:25;;;;;;;5.67;5.07;;;2.60;99.90;;;;;;5064903;28;20649;-87
2020/12/27 12:41:56;;;;;;;7.10;6.47;;;2.60;99.90;;;;;;5062240;28;20642;-87
2020/12/27 12:44:23;;;;;;;6.80;5.47;;;2.70;99.90;;;;;;5070438;28;20637;-86
2020/12/27 12:46:55;;;;;;;6.23;5.73;;;2.70;99.90;;;;;;5066977;28;20637;-87
2020/12/27 12:49:22;;;;;;;7.10;5.60;;;2.70;99.90;;;;;;5067858;28;20678;-88
2020/12/27 12:51:51;;;;;;;5.90;5.10;;;2.70;99.90;;;;;;5065648;28;20642;-87
2020/12/27 12:54:18;;;;;;;5.30;4.77;;;2.90;99.90;;;;;;5069895;28;20643;-87
2020/12/27 12:56:49;;;;;;;5.57;5.00;;;2.70;99.90;;;;;;5076038;28;20694;-86
2020/12/27 12:59:18;;;;;;;5.57;5.07;;;2.80;99.90;;;;;;5058921;28;21704;-87
2020/12/27 13:01:49;;;;;;;5.47;4.97;;;2.90;99.90;;;;;;5064888;28;20638;-87
2020/12/27 13:04:15;;;;;;;6.87;6.27;;;2.80;99.90;;;;;;5070166;28;20644;-88
2020/12/27 13:06:46;;;;;;;39.93;21.83;;;2.80;99.90;;;;;;5063435;28;21102;-87
2020/12/27 13:09:12;;;;;;;8.13;6.07;;;2.90;99.90;;;;;;5064984;28;20745;-87
2020/12/27 13:11:40;;;;;;;6.80;5.33;;;2.80;99.90;;;;;;5064461;28;21122;-87
2020/12/27 13:14:06;;;;;;;6.40;5.20;;;2.80;99.90;;;;;;5065483;28;21074;-87
2020/12/27 13:16:33;;;;;;;6.70;5.63;;;2.80;99.90;;;;;;5070366;28;20638;-87
2020/12/27 13:18:59;;;;;;;9.33;6.03;;;2.90;99.90;;;;;;5067351;28;20675;-87
2020/12/27 13:21:26;;;;;;;7.07;6.37;;;2.80;99.90;;;;;;5064802;28;20644;-86
2020/12/27 13:23:52;;;;;;;6.73;6.13;;;2.80;99.90;;;;;;5064769;28;20640;-87
2020/12/27 13:26:19;;;;;;;6.60;5.73;;;2.80;99.90;;;;;;5065480;28;20638;-88
2020/12/27 13:28:46;;;;;;;6.03;5.40;;;2.90;99.90;;;;;;5061481;28;20729;-87
2020/12/27 13:31:12;;;;;;;7.10;6.20;;;2.90;99.90;;;;;;5066685;28;20723;-87
2020/12/27 13:33:40;;;;;;;6.23;5.70;;;2.90;99.90;;;;;;5063161;28;20643;-87
2020/12/27 13:36:06;;;;;;;6.00;5.47;;;2.80;99.90;;;;;;5067733;28;20633;-87
2020/12/27 13:38:32;;;;;;;7.90;5.90;;;2.80;99.90;;;;;;5071325;28;20646;-87
2020/12/27 13:40:59;;;;;;;5.57;5.00;;;2.80;99.90;;;;;;5070105;28;20642;-87
2020/12/27 13:43:27;;;;;;;5.20;4.80;;;2.80;99.90;;;;;;5067684;28;20628;-87
2020/12/27 13:45:57;;;;;;;7.87;5.50;;;2.90;99.90;;;;;;5073111;28;20978;-87
2020/12/27 13:48:24;;;;;;;9.50;5.73;;;2.90;99.90;;;;;;5071779;28;20645;-87
2020/12/27 13:50:52;;;;;;;6.23;5.73;;;3.00;99.90;;;;;;5063855;28;20684;-86
2020/12/27 13:53:18;;;;;;;5.50;5.00;;;2.90;99.90;;;;;;5063734;28;20642;-86
2020/12/27 13:55:44;;;;;;;6.27;5.70;;;2.90;99.90;;;;;;5067279;28;20996;-86
2020/12/27 13:58:11;;;;;;;6.37;5.77;;;2.90;99.90;;;;;;5064684;28;20631;-88
2020/12/27 14:00:37;;;;;;;8.07;5.00;;;2.90;99.90;;;;;;5068647;28;20666;-87
2020/12/27 14:03:04;;;;;;;5.70;5.20;;;2.90;99.90;;;;;;5070992;28;20658;-87
2020/12/27 14:05:31;;;;;;;5.97;5.43;;;2.80;99.90;;;;;;5068803;28;20637;-86
2020/12/27 14:07:58;;;;;;;5.30;4.90;;;2.80;99.90;;;;;;5065451;28;20671;-86
2020/12/27 14:10:24;;;;;;;7.77;4.80;;;2.80;99.90;;;;;;5070374;28;20689;-87
2020/12/27 14:12:51;;;;;;;8.63;6.50;;;2.90;99.90;;;;;;5061668;28;20649;-88
2020/12/27 14:15:18;;;;;;;7.93;7.13;;;2.80;99.90;;;;;;5060368;28;20649;-87
2020/12/27 14:17:45;;;;;;;5.93;5.40;;;2.90;99.90;;;;;;5062860;28;20691;-88
2020/12/27 14:20:13;;;;;;;5.60;5.10;;;2.80;99.90;;;;;;5067772;28;20674;-88
2020/12/27 14:22:40;;;;;;;5.83;5.33;;;2.90;99.90;;;;;;5067322;28;21261;-87
2020/12/27 14:25:06;;;;;;;5.20;4.80;;;2.90;99.90;;;;;;5065946;28;21093;-89
2020/12/27 14:27:33;;;;;;;5.60;5.13;;;2.80;99.90;;;;;;5066570;28;20626;-88
2020/12/27 14:29:59;;;;;;;6.50;5.73;;;2.90;99.90;;;;;;5079702;28;20685;-87
2020/12/27 14:32:26;;;;;;;5.10;4.47;;;2.90;99.90;;;;;;5071043;28;20743;-87
2020/12/27 14:34:52;;;;;;;5.40;4.90;;;2.90;99.90;;;;;;5072747;28;21247;-87
2020/12/27 14:37:20;;;;;;;6.87;5.13;;;2.90;99.90;;;;;;5071504;28;20633;-87
2020/12/27 14:39:46;;;;;;;6.80;5.87;;;2.90;99.90;;;;;;5060425;28;20666;-87
2020/12/27 14:42:12;;;;;;;5.33;4.80;;;3.00;99.90;;;;;;5070795;28;20662;-89
2020/12/27 14:44:39;;;;;;;6.00;5.50;;;2.90;99.90;;;;;;5068530;28;20642;-87
2020/12/27 14:47:07;;;;;;;5.37;4.87;;;2.90;99.90;;;;;;5064367;28;20641;-89
2020/12/27 14:49:34;;;;;;;6.30;5.60;;;2.80;99.90;;;;;;5067535;28;20734;-89
2020/12/27 14:52:01;;;;;;;6.00;5.40;;;2.90;99.90;;;;;;5057788;28;20634;-89
2020/12/27 14:54:28;;;;;;;7.80;5.80;;;2.90;99.90;;;;;;5066506;28;20642;-87
2020/12/27 14:56:55;;;;;;;6.07;5.50;;;3.00;99.90;;;;;;5066058;28;20619;-88
2020/12/27 14:59:22;;;;;;;5.47;5.00;;;3.00;99.90;;;;;;5058723;28;20650;-88
2020/12/27 15:01:50;;;;;;;7.03;6.33;;;3.00;99.90;;;;;;5067853;28;20876;-88
2020/12/27 15:04:17;;;;;;;6.37;5.77;;;3.00;99.90;;;;;;5065404;28;20633;-88
2020/12/27 15:06:45;;;;;;;6.07;5.47;;;3.00;99.90;;;;;;5063095;28;20731;-88
2020/12/27 15:09:13;;;;;;;7.30;5.00;;;3.00;99.90;;;;;;5071924;28;20660;-89